Time;durP1;ratioP1;P1;durP2;ratioP2;P2;SDS_P1;SDS_P2;PMS_P1;PMS_P2;Temp;Humidity;BMP_temperature;BMP_pressure;BME280_temperature;BME280_humidity;BME280_pressure;Samples;Min_cycle;Max_cycle;Signal;HPM_P1;HPM_P2
2021/04/01 00:00:23;;;;;;;13.95;7.45;;;9.70;99.90;;;;;;5053296;28;20368;-71
2021/04/01 00:02:51;;;;;;;20.73;8.70;;;9.70;99.90;;;;;;5051882;28;20052;-71
2021/04/01 00:05:17;;;;;;;12.60;7.85;;;9.70;99.90;;;;;;5053516;28;20025;-71
2021/04/01 00:07:43;;;;;;;15.93;7.82;;;9.70;99.90;;;;;;5053512;28;20033;-71
2021/04/01 00:10:15;;;;;;;13.23;7.57;;;9.60;99.90;;;;;;5052787;28;20041;-70
2021/04/01 00:12:41;;;;;;;15.13;7.33;;;9.60;99.90;;;;;;5058525;28;20028;-71
2021/04/01 00:15:08;;;;;;;11.95;7.47;;;9.60;99.90;;;;;;5060413;28;20333;-71
2021/04/01 00:17:36;;;;;;;15.50;7.88;;;9.50;99.90;;;;;;5054769;28;20080;-71
2021/04/01 00:20:04;;;;;;;17.52;7.10;;;9.60;99.90;;;;;;5054974;28;20020;-71
2021/04/01 00:22:29;;;;;;;11.32;6.90;;;9.40;99.90;;;;;;5056724;28;20036;-71
2021/04/01 00:24:55;;;;;;;12.68;7.72;;;9.30;99.90;;;;;;5053112;28;20020;-70
2021/04/01 00:27:20;;;;;;;11.82;6.47;;;9.30;99.90;;;;;;5056168;28;20028;-71
2021/04/01 00:29:46;;;;;;;11.63;7.20;;;9.30;99.90;;;;;;5057040;28;20032;-71
2021/04/01 00:32:12;;;;;;;13.23;6.78;;;9.30;99.90;;;;;;5055974;28;20033;-71
2021/04/01 00:34:37;;;;;;;10.35;6.80;;;9.40;99.90;;;;;;5056845;28;20047;-71
2021/04/01 00:37:03;;;;;;;11.63;7.07;;;9.30;99.90;;;;;;5057516;28;20025;-71
2021/04/01 00:39:29;;;;;;;11.88;7.97;;;9.20;99.90;;;;;;5057110;28;20360;-72
2021/04/01 00:41:55;;;;;;;27.67;8.73;;;9.20;99.90;;;;;;5057215;28;20036;-71
2021/04/01 00:44:20;;;;;;;15.13;8.50;;;9.20;99.90;;;;;;5055691;28;20028;-71
2021/04/01 00:46:47;;;;;;;14.25;8.68;;;9.20;99.90;;;;;;5056288;28;20166;-71
2021/04/01 00:49:14;;;;;;;11.50;7.30;;;9.10;99.90;;;;;;5056745;28;20188;-71
2021/04/01 00:51:40;;;;;;;12.18;7.80;;;9.10;99.90;;;;;;5057015;28;20021;-71
2021/04/01 00:54:06;;;;;;;11.20;7.57;;;9.10;99.90;;;;;;5056206;28;20171;-71
2021/04/01 00:56:32;;;;;;;14.02;7.35;;;9.10;99.90;;;;;;5055988;28;20060;-71
2021/04/01 00:58:58;;;;;;;14.43;7.25;;;9.00;99.90;;;;;;5055444;28;20112;-71
2021/04/01 01:03:56;;;;;;;11.15;7.50;;;9.00;99.90;;;;;;5054589;28;20027;-71
2021/04/01 01:06:21;;;;;;;16.20;7.63;;;9.00;99.90;;;;;;5054072;28;20013;-70
2021/04/01 01:08:47;;;;;;;10.60;6.93;;;9.00;99.90;;;;;;5052316;28;20369;-70
2021/04/01 01:11:13;;;;;;;17.17;7.68;;;8.90;99.90;;;;;;5050882;28;20021;-71
2021/04/01 01:13:38;;;;;;;12.75;7.60;;;8.90;99.90;;;;;;5051500;28;20033;-71
2021/04/01 01:16:05;;;;;;;14.13;7.32;;;8.80;99.90;;;;;;5051523;28;20032;-71
2021/04/01 01:18:31;;;;;;;12.25;7.45;;;8.70;99.90;;;;;;5052027;28;20036;-71
2021/04/01 01:21:00;;;;;;;12.50;7.70;;;8.60;99.90;;;;;;5052080;28;20020;-71
2021/04/01 01:23:27;;;;;;;10.02;7.22;;;8.60;99.90;;;;;;5051209;28;20506;-71
2021/04/01 01:25:54;;;;;;;13.07;7.43;;;8.70;99.90;;;;;;5050446;28;20116;-70
2021/04/01 01:28:20;;;;;;;14.00;8.15;;;8.60;99.90;;;;;;5052061;28;20475;-71
2021/04/01 01:30:46;;;;;;;17.48;8.93;;;8.70;99.90;;;;;;5051454;28;20100;-71
2021/04/01 01:33:16;;;;;;;18.20;8.95;;;8.70;99.90;;;;;;5051028;28;20063;-71
2021/04/01 01:35:42;;;;;;;20.52;8.63;;;8.70;99.90;;;;;;5051625;28;20108;-70
2021/04/01 01:38:08;;;;;;;12.65;8.32;;;8.60;99.90;;;;;;5051504;28;20461;-70
2021/04/01 01:40:35;;;;;;;12.98;8.18;;;8.60;99.90;;;;;;5051660;28;20037;-70
2021/04/01 01:43:06;;;;;;;11.88;7.47;;;8.50;99.90;;;;;;5050968;28;20029;-70
2021/04/01 01:45:32;;;;;;;14.45;7.75;;;8.30;99.90;;;;;;5051568;28;20455;-70
2021/04/01 01:47:59;;;;;;;15.10;8.23;;;8.30;99.90;;;;;;5051546;28;20398;-70
2021/04/01 01:50:30;;;;;;;13.52;7.85;;;8.30;99.90;;;;;;5051468;28;20024;-71
2021/04/01 01:52:56;;;;;;;14.85;8.52;;;8.20;99.90;;;;;;5049438;28;20045;-71
2021/04/01 01:55:23;;;;;;;12.18;8.50;;;8.20;99.90;;;;;;5051584;28;20029;-71
2021/04/01 01:57:49;;;;;;;11.35;8.32;;;8.30;99.90;;;;;;5049876;28;20032;-71
2021/04/01 02:00:17;;;;;;;17.25;7.93;;;8.30;99.90;;;;;;5051601;28;20094;-71
2021/04/01 02:02:57;;;;;;;14.85;8.27;;;8.30;99.90;;;;;;5050683;28;20027;-71
2021/04/01 02:05:26;;;;;;;12.80;8.45;;;8.30;99.90;;;;;;5051661;28;20021;-70
2021/04/01 02:07:52;;;;;;;14.65;8.38;;;8.10;99.90;;;;;;5051612;28;20029;-70
2021/04/01 02:10:20;;;;;;;16.92;8.15;;;8.10;99.90;;;;;;5050409;28;20025;-71
2021/04/01 02:12:46;;;;;;;13.27;8.23;;;8.10;99.90;;;;;;5050864;28;20090;-71
2021/04/01 02:15:17;;;;;;;14.45;8.25;;;8.00;99.90;;;;;;5051312;28;20033;-70
2021/04/01 02:17:43;;;;;;;15.43;8.77;;;8.10;99.90;;;;;;5050835;28;20087;-70
2021/04/01 02:20:10;;;;;;;11.55;8.40;;;8.00;99.90;;;;;;5051420;28;20017;-70
2021/04/01 02:22:37;;;;;;;17.67;8.75;;;8.00;99.90;;;;;;5051419;28;20052;-70
2021/04/01 02:25:04;;;;;;;15.25;9.05;;;8.10;99.90;;;;;;5049765;28;20106;-70
2021/04/01 02:27:30;;;;;;;15.90;8.50;;;8.10;99.90;;;;;;5051007;28;20116;-70
2021/04/01 02:29:56;;;;;;;19.77;8.85;;;8.10;99.90;;;;;;5051164;28;20067;-70
2021/04/01 02:32:22;;;;;;;16.27;8.95;;;8.00;99.90;;;;;;5050573;28;20048;-70
2021/04/01 02:34:48;;;;;;;22.10;9.40;;;8.00;99.90;;;;;;5050271;28;20096;-70
2021/04/01 02:37:14;;;;;;;15.93;8.65;;;7.90;99.90;;;;;;5050884;28;20033;-70
2021/04/01 02:39:40;;;;;;;20.02;9.40;;;7.90;99.90;;;;;;5050967;28;20100;-70
2021/04/01 02:42:06;;;;;;;11.90;8.73;;;7.90;99.90;;;;;;5050980;28;20203;-70
2021/04/01 02:44:32;;;;;;;12.85;8.20;;;7.90;99.90;;;;;;5050355;28;20063;-70
2021/04/01 02:46:58;;;;;;;17.10;8.77;;;7.80;99.90;;;;;;5051717;28;20370;-70
2021/04/01 02:49:23;;;;;;;14.82;8.23;;;7.80;99.90;;;;;;5054876;28;20392;-70
2021/04/01 02:51:49;;;;;;;16.60;8.27;;;7.80;99.90;;;;;;5054788;28;20518;-70
2021/04/01 02:54:15;;;;;;;16.75;8.50;;;7.80;99.90;;;;;;5052919;28;20105;-70
2021/04/01 02:56:40;;;;;;;14.30;7.95;;;7.80;99.90;;;;;;5054519;28;20520;-70
2021/04/01 02:59:06;;;;;;;14.40;8.68;;;7.80;99.90;;;;;;5054445;28;20368;-70
2021/04/01 03:01:32;;;;;;;18.95;9.07;;;7.60;99.90;;;;;;5054177;28;20347;-70
2021/04/01 03:03:59;;;;;;;18.88;9.10;;;7.60;99.90;;;;;;5053983;28;20013;-70
2021/04/01 03:06:25;;;;;;;18.15;9.10;;;7.60;99.90;;;;;;5054655;28;20071;-70
2021/04/01 03:08:51;;;;;;;13.25;8.30;;;7.50;99.90;;;;;;5054536;28;20060;-70
2021/04/01 03:11:16;;;;;;;23.00;10.20;;;7.50;99.90;;;;;;5054229;28;20104;-70
2021/04/01 03:13:42;;;;;;;16.63;9.18;;;7.40;99.90;;;;;;5053834;28;20100;-70
2021/04/01 03:16:08;;;;;;;16.77;10.07;;;7.40;99.90;;;;;;5052734;28;20110;-70
2021/04/01 03:18:33;;;;;;;18.80;9.40;;;7.40;99.90;;;;;;5050858;28;20479;-72
2021/04/01 03:20:59;;;;;;;15.60;9.35;;;7.30;99.90;;;;;;5048372;28;20115;-71
2021/04/01 03:23:26;;;;;;;18.70;9.40;;;7.30;99.90;;;;;;5053401;28;20025;-72
2021/04/01 03:25:51;;;;;;;16.92;7.93;;;7.30;99.90;;;;;;5064074;28;20240;-71
2021/04/01 03:28:17;;;;;;;14.80;9.30;;;7.30;99.90;;;;;;5072241;28;20022;-71
2021/04/01 03:30:49;;;;;;;14.93;9.40;;;7.20;99.90;;;;;;5061870;28;20101;-71
2021/04/01 03:33:15;;;;;;;13.30;9.25;;;7.20;99.90;;;;;;5045198;28;20029;-72
2021/04/01 03:35:40;;;;;;;16.55;10.10;;;7.20;99.90;;;;;;5044527;28;20474;-72
2021/04/01 03:38:07;;;;;;;14.80;8.90;;;7.10;99.90;;;;;;5045976;28;20067;-73
2021/04/01 03:40:34;;;;;;;14.10;8.88;;;7.10;99.90;;;;;;5031782;28;20476;-72
2021/04/01 03:43:00;;;;;;;17.95;9.02;;;7.10;99.90;;;;;;5033019;28;20021;-71
2021/04/01 03:45:25;;;;;;;19.05;9.35;;;7.10;99.90;;;;;;5032329;28;20036;-72
2021/04/01 03:47:52;;;;;;;18.05;9.70;;;7.10;99.90;;;;;;5033756;28;20029;-72
2021/04/01 03:50:17;;;;;;;14.65;8.18;;;7.00;99.90;;;;;;5033340;28;20025;-71
2021/04/01 03:52:43;;;;;;;15.75;9.23;;;7.00;99.90;;;;;;5032375;28;20033;-71
2021/04/01 03:58:13;;;;;;;20.55;9.75;;;7.00;99.90;;;;;;5033582;28;20083;-71
2021/04/01 04:00:40;;;;;;;19.05;10.15;;;6.90;99.90;;;;;;5034688;28;20136;-71
2021/04/01 04:11:19;;;;;;;16.13;9.20;;;6.90;99.90;;;;;;5051513;28;20055;-71
2021/04/01 04:16:11;;;;;;;14.98;8.75;;;6.90;99.90;;;;;;5071021;28;20029;-72
2021/04/01 04:18:36;;;;;;;14.90;8.90;;;6.90;99.90;;;;;;5074180;28;20775;-72
2021/04/01 04:21:02;;;;;;;17.60;8.50;;;7.00;99.90;;;;;;5081326;28;20036;-74
2021/04/01 04:23:28;;;;;;;13.25;9.25;;;6.90;99.90;;;;;;5075047;28;20040;-71
2021/04/01 04:25:56;;;;;;;17.02;9.20;;;6.90;99.90;;;;;;5071654;28;20017;-71
2021/04/01 04:28:28;;;;;;;12.68;8.60;;;6.80;99.90;;;;;;5071038;28;20047;-71
2021/04/01 04:30:54;;;;;;;17.23;9.23;;;6.80;99.90;;;;;;5065623;28;20028;-72
2021/04/01 04:33:19;;;;;;;15.20;9.77;;;6.90;99.90;;;;;;5048255;28;20398;-70
2021/04/01 04:35:45;;;;;;;15.40;9.07;;;6.90;99.90;;;;;;5051013;28;20025;-71
2021/04/01 04:38:11;;;;;;;15.48;9.48;;;6.80;99.90;;;;;;5050592;28;20534;-70
2021/04/01 04:40:37;;;;;;;17.88;9.43;;;6.80;99.90;;;;;;5050690;28;20029;-71
2021/04/01 04:43:02;;;;;;;18.55;9.52;;;6.80;99.90;;;;;;5049974;28;20019;-71
2021/04/01 04:45:28;;;;;;;20.65;9.38;;;6.80;99.90;;;;;;5050237;28;20041;-71
2021/04/01 04:47:54;;;;;;;13.50;9.70;;;6.80;99.90;;;;;;5050139;28;20041;-71
2021/04/01 04:50:20;;;;;;;20.58;9.32;;;6.80;99.90;;;;;;5050480;28;20043;-73
2021/04/01 04:52:45;;;;;;;12.48;8.20;;;6.70;99.90;;;;;;5049885;28;20045;-72
2021/04/01 04:55:12;;;;;;;15.82;8.63;;;6.70;99.90;;;;;;5046635;28;20035;-72
2021/04/01 05:05:52;;;;;;;19.38;9.00;;;6.70;99.90;;;;;;5029376;28;20033;-72
2021/04/01 05:08:18;;;;;;;15.85;9.40;;;6.70;99.90;;;;;;5029129;28;20033;-72
2021/04/01 05:10:44;;;;;;;16.13;9.07;;;6.70;99.90;;;;;;5028831;28;20026;-72
2021/04/01 05:13:11;;;;;;;15.40;8.98;;;6.70;99.90;;;;;;5029632;28;20037;-72
2021/04/01 05:15:40;;;;;;;20.45;8.48;;;6.70;99.90;;;;;;5067110;28;20020;-71
2021/04/01 05:18:14;;;;;;;17.73;8.77;;;6.70;99.90;;;;;;5069471;28;20085;-71
2021/04/01 05:20:45;;;;;;;16.70;8.85;;;6.70;99.90;;;;;;5069674;28;20084;-71
2021/04/01 05:25:47;;;;;;;14.45;9.20;;;6.80;99.90;;;;;;5069387;28;20027;-71
2021/04/01 05:30:47;;;;;;;14.55;8.50;;;6.80;99.90;;;;;;5068013;28;20065;-72
2021/04/01 05:33:15;;;;;;;22.73;8.90;;;6.80;99.90;;;;;;5047459;28;20033;-73
2021/04/01 05:35:40;;;;;;;16.73;8.32;;;6.90;99.90;;;;;;5047080;28;20194;-73
2021/04/01 05:38:07;;;;;;;13.85;8.23;;;7.00;99.90;;;;;;5048931;28;20126;-72
2021/04/01 05:40:32;;;;;;;16.60;8.88;;;7.00;99.90;;;;;;5048776;28;20021;-71
2021/04/01 05:43:05;;;;;;;19.92;9.07;;;7.10;99.90;;;;;;5049046;28;20025;-73
2021/04/01 05:48:04;;;;;;;15.68;8.73;;;7.30;99.90;;;;;;5049666;28;20447;-73
2021/04/01 05:59:28;;;;;;;12.95;8.20;;;7.50;99.90;;;;;;5052155;28;20052;-73
2021/04/01 06:02:08;;;;;;;13.52;8.30;;;7.60;99.90;;;;;;5049183;28;20051;-73
2021/04/01 06:07:07;;;;;;;13.60;7.80;;;7.80;99.90;;;;;;5048979;28;20048;-72
2021/04/01 06:09:49;;;;;;;18.77;8.73;;;7.90;99.90;;;;;;5049621;28;20027;-71
2021/04/01 06:12:15;;;;;;;12.98;8.27;;;8.10;99.90;;;;;;5049625;28;20025;-72
2021/04/01 06:14:47;;;;;;;16.15;7.88;;;8.10;99.90;;;;;;5058817;28;20047;-73
2021/04/01 06:17:17;;;;;;;19.65;8.75;;;8.30;99.90;;;;;;5067285;28;20024;-71
2021/04/01 06:19:47;;;;;;;18.00;8.25;;;8.40;99.90;;;;;;5070450;28;20067;-72
2021/04/01 06:22:14;;;;;;;20.42;7.93;;;8.60;99.90;;;;;;5069308;28;20020;-72
2021/04/01 06:24:43;;;;;;;11.82;7.22;;;8.60;99.90;;;;;;5073129;28;20051;-72
2021/04/01 06:27:29;;;;;;;13.50;7.45;;;8.60;99.90;;;;;;5071743;28;20040;-71
2021/04/01 06:32:39;;;;;;;10.65;7.07;;;8.60;99.90;;;;;;5045772;28;20134;-71
2021/04/01 06:35:33;;;;;;;15.63;7.97;;;8.70;99.90;;;;;;5040990;28;20045;-72
2021/04/01 06:38:19;;;;;;;17.02;7.93;;;9.10;99.90;;;;;;5037935;28;20495;-72
2021/04/01 06:40:54;;;;;;;14.35;7.72;;;9.20;99.90;;;;;;5050739;28;20017;-71
2021/04/01 06:43:23;;;;;;;14.73;7.97;;;9.30;99.90;;;;;;5052317;28;20025;-71
2021/04/01 06:45:57;;;;;;;12.80;7.47;;;9.30;99.90;;;;;;5062836;28;20173;-71
2021/04/01 06:48:34;;;;;;;12.40;6.75;;;9.20;99.90;;;;;;5051875;28;20807;-72
2021/04/01 06:51:08;;;;;;;14.15;7.03;;;9.40;99.90;;;;;;5051250;28;20438;-72
2021/04/01 06:53:41;;;;;;;11.88;7.05;;;9.40;99.90;;;;;;5050830;28;20040;-73
2021/04/01 06:58:50;;;;;;;10.75;7.03;;;9.50;99.90;;;;;;5068547;28;20135;-73
2021/04/01 07:04:04;;;;;;;14.55;7.70;;;9.80;99.90;;;;;;5052762;28;20511;-72
2021/04/01 07:06:35;;;;;;;15.75;7.93;;;9.80;99.90;;;;;;5052543;28;20343;-73
2021/04/01 07:09:08;;;;;;;10.95;6.95;;;9.90;99.90;;;;;;5052938;28;20029;-73
2021/04/01 07:11:39;;;;;;;18.15;6.90;;;10.00;99.90;;;;;;5052987;28;20028;-72
2021/04/01 07:14:10;;;;;;;12.57;6.75;;;10.00;99.90;;;;;;5055810;28;20037;-71
2021/04/01 07:16:54;;;;;;;11.05;7.15;;;10.20;99.90;;;;;;5053217;28;20071;-72
2021/04/01 07:44:44;;;;;;;16.67;6.65;;;11.60;99.90;;;;;;5029556;28;20033;-70
2021/04/01 07:47:30;;;;;;;9.23;6.18;;;12.50;99.90;;;;;;5061922;28;20105;-71
2021/04/01 07:49:59;;;;;;;9.90;5.95;;;12.80;99.90;;;;;;5060317;28;20120;-72
2021/04/01 07:52:27;;;;;;;14.38;6.55;;;13.10;99.90;;;;;;5059959;28;20116;-71
2021/04/01 08:05:21;;;;;;;15.65;5.78;;;14.40;99.90;;;;;;5069815;28;20036;-71
2021/04/01 08:07:54;;;;;;;12.07;5.43;;;14.90;99.90;;;;;;5065602;28;20021;-71
2021/04/01 08:10:25;;;;;;;10.00;5.43;;;15.30;99.90;;;;;;5071909;28;20048;-71
2021/04/01 08:12:59;;;;;;;8.88;5.28;;;15.80;99.90;;;;;;5060721;28;20039;-71
2021/04/01 08:15:26;;;;;;;13.90;5.38;;;15.70;99.90;;;;;;5072899;28;20029;-72
2021/04/01 08:18:11;;;;;;;6.85;4.50;;;15.50;99.90;;;;;;5072201;28;20029;-71
2021/04/01 08:20:41;;;;;;;10.13;5.25;;;16.30;99.90;;;;;;5070138;28;20044;-71
2021/04/01 08:23:13;;;;;;;11.95;4.93;;;16.60;99.90;;;;;;5070571;28;20012;-71
2021/04/01 08:25:43;;;;;;;7.40;4.85;;;17.00;99.90;;;;;;5071052;28;20092;-71
2021/04/01 08:33:57;;;;;;;12.35;4.82;;;17.70;98.50;;;;;;5071978;28;20036;-71
2021/04/01 08:36:25;;;;;;;13.13;4.75;;;17.80;98.20;;;;;;5080672;28;20505;-71
2021/04/01 08:38:51;;;;;;;15.48;4.68;;;18.60;96.70;;;;;;5074170;28;20099;-71
2021/04/01 08:41:35;;;;;;;8.90;4.50;;;18.70;96.70;;;;;;5072879;28;20024;-71
2021/04/01 08:44:12;;;;;;;6.38;4.43;;;19.00;94.50;;;;;;5066515;28;20526;-72
2021/04/01 08:46:58;;;;;;;12.70;4.50;;;19.70;93.10;;;;;;5040738;28;20491;-72
2021/04/01 08:49:42;;;;;;;10.00;4.25;;;19.30;92.90;;;;;;5040889;28;20068;-71
2021/04/01 08:52:33;;;;;;;10.02;4.25;;;19.80;91.60;;;;;;5051623;28;20095;-71
2021/04/01 08:55:16;;;;;;;10.82;4.18;;;20.40;88.70;;;;;;5049803;28;20100;-71
2021/04/01 08:57:57;;;;;;;7.65;4.28;;;20.60;88.70;;;;;;5050636;28;20039;-71
2021/04/01 09:00:26;;;;;;;12.82;4.38;;;20.20;90.40;;;;;;5049844;28;20111;-73
2021/04/01 09:02:54;;;;;;;12.48;4.65;;;20.60;84.70;;;;;;5049973;28;20201;-72
2021/04/01 09:05:21;;;;;;;11.82;4.20;;;20.50;84.60;;;;;;5049365;28;20027;-72
2021/04/01 09:08:00;;;;;;;9.35;4.13;;;21.00;82.90;;;;;;5050833;28;20025;-72
2021/04/01 09:10:36;;;;;;;9.25;4.10;;;21.60;81.00;;;;;;5057276;28;20718;-73
2021/04/01 09:17:56;;;;;;;14.20;4.65;;;20.30;83.70;;;;;;5068635;28;20080;-72
2021/04/01 09:20:25;;;;;;;9.35;4.07;;;20.80;83.40;;;;;;5069319;28;20013;-72
2021/04/01 09:22:58;;;;;;;9.77;4.45;;;21.60;82.40;;;;;;5063570;28;20029;-73
2021/04/01 09:25:39;;;;;;;8.82;4.20;;;21.90;79.60;;;;;;5056557;28;20123;-72
2021/04/01 09:28:07;;;;;;;9.90;4.30;;;22.10;77.80;;;;;;5062218;28;20029;-74
2021/04/01 09:30:34;;;;;;;8.13;3.90;;;22.40;76.40;;;;;;5061839;28;20450;-73
2021/04/01 09:33:06;;;;;;;7.30;3.83;;;22.80;76.30;;;;;;5058085;28;20181;-73
2021/04/01 09:35:37;;;;;;;8.07;3.50;;;22.80;75.40;;;;;;5060103;28;20033;-73
2021/04/01 09:38:08;;;;;;;8.55;3.58;;;22.80;76.00;;;;;;5059866;28;20048;-71
2021/04/01 09:40:38;;;;;;;6.75;4.18;;;22.40;76.90;;;;;;5058174;28;20028;-72
2021/04/01 09:43:16;;;;;;;13.15;3.95;;;22.60;76.60;;;;;;5055692;28;20048;-72
2021/04/01 09:45:42;;;;;;;11.13;3.58;;;22.90;75.70;;;;;;5067987;28;20049;-73
2021/04/01 09:48:10;;;;;;;8.07;3.65;;;23.30;74.20;;;;;;5065705;28;20055;-73
2021/04/01 09:50:38;;;;;;;8.55;4.05;;;23.10;73.80;;;;;;5060037;28;20100;-75
2021/04/01 09:53:12;;;;;;;11.75;3.75;;;23.60;74.50;;;;;;5049259;28;20045;-72
2021/04/01 09:55:43;;;;;;;10.65;4.00;;;23.30;74.40;;;;;;5058040;28;20475;-71
2021/04/01 09:58:29;;;;;;;6.27;3.37;;;23.60;73.90;;;;;;5063725;28;20036;-72
2021/04/01 10:01:28;;;;;;;8.48;3.13;;;23.70;71.10;;;;;;5063648;28;20049;-73
2021/04/01 10:04:07;;;;;;;10.32;3.08;;;23.90;70.60;;;;;;5059195;28;20021;-73
2021/04/01 10:06:44;;;;;;;7.82;2.90;;;23.50;71.60;;;;;;5057160;28;20052;-71
2021/04/01 10:09:15;;;;;;;7.53;3.05;;;23.90;67.70;;;;;;5053292;28;20028;-72
2021/04/01 10:11:59;;;;;;;9.55;2.67;;;23.40;66.10;;;;;;5052750;28;20044;-72
2021/04/01 10:14:29;;;;;;;4.97;2.65;;;23.70;65.90;;;;;;5051778;28;20029;-71
2021/04/01 10:16:59;;;;;;;6.90;2.47;;;24.20;65.20;;;;;;5054278;28;20051;-71
2021/04/01 10:19:52;;;;;;;5.05;2.40;;;24.20;62.10;;;;;;5056645;28;20048;-73
2021/04/01 10:22:29;;;;;;;4.68;2.38;;;24.50;63.60;;;;;;5049816;28;20041;-72
2021/04/01 10:25:23;;;;;;;7.85;2.28;;;25.50;62.00;;;;;;5063734;28;20021;-72
2021/04/01 10:28:09;;;;;;;2.67;1.90;;;27.10;56.80;;;;;;5059664;28;20032;-72
2021/04/01 10:30:36;;;;;;;3.75;2.17;;;27.90;53.70;;;;;;5056978;28;20531;-72
2021/04/01 10:33:23;;;;;;;4.43;2.13;;;28.20;53.10;;;;;;5049991;28;20048;-71
2021/04/01 10:35:55;;;;;;;4.53;2.00;;;29.00;50.70;;;;;;5036769;28;20021;-71
2021/04/01 10:38:21;;;;;;;3.40;2.20;;;28.80;50.70;;;;;;5067423;28;20029;-71
2021/04/01 10:40:51;;;;;;;7.82;2.33;;;27.60;50.40;;;;;;5067681;28;20025;-72
2021/04/01 10:43:21;;;;;;;8.13;2.33;;;28.30;51.90;;;;;;5067537;28;20037;-73
2021/04/01 10:45:47;;;;;;;9.05;2.20;;;29.20;50.50;;;;;;5068594;28;20032;-73
2021/04/01 10:48:30;;;;;;;6.43;1.88;;;30.40;48.10;;;;;;5067171;28;20013;-72
2021/04/01 10:51:03;;;;;;;5.97;2.00;;;31.10;44.30;;;;;;5066829;28;20183;-73
2021/04/01 10:53:31;;;;;;;5.20;1.90;;;30.60;46.10;;;;;;5066254;28;20029;-73
2021/04/01 10:56:05;;;;;;;4.47;1.63;;;30.30;46.20;;;;;;5052853;28;20144;-72
2021/04/01 10:58:32;;;;;;;5.07;2.40;;;30.70;42.60;;;;;;5050153;28;20025;-71
2021/04/01 11:01:00;;;;;;;4.60;1.77;;;29.20;45.00;;;;;;5049794;28;20021;-71
2021/04/01 11:03:36;;;;;;;7.15;2.47;;;29.30;45.20;;;;;;5050770;28;20025;-72
2021/04/01 11:06:04;;;;;;;5.40;1.80;;;29.60;47.20;;;;;;5057572;28;20031;-73
2021/04/01 11:08:43;;;;;;;7.95;2.30;;;31.40;44.60;;;;;;5068555;28;20041;-72
2021/04/01 11:11:11;;;;;;;3.47;2.55;;;31.30;41.70;;;;;;5072023;28;20039;-73
2021/04/01 11:13:39;;;;;;;5.38;2.53;;;28.40;45.20;;;;;;5071231;28;20506;-71
2021/04/01 11:16:10;;;;;;;3.15;2.03;;;28.50;46.40;;;;;;5065000;28;20040;-72
2021/04/01 11:18:45;;;;;;;5.97;2.53;;;28.80;45.40;;;;;;5053380;28;20017;-69
2021/04/01 11:21:11;;;;;;;7.78;2.67;;;29.70;44.40;;;;;;5052155;28;20032;-72
2021/04/01 11:23:37;;;;;;;4.13;2.20;;;29.80;47.20;;;;;;5052307;28;20036;-71
2021/04/01 11:26:04;;;;;;;2.60;1.85;;;29.20;44.40;;;;;;5052467;28;20025;-71
2021/04/01 11:28:35;;;;;;;6.18;2.15;;;28.80;45.40;;;;;;5052705;28;20098;-71
2021/04/01 11:31:02;;;;;;;9.45;2.40;;;29.80;46.50;;;;;;5050628;28;20025;-71
2021/04/01 11:33:29;;;;;;;6.82;2.15;;;30.50;45.90;;;;;;5051854;28;20419;-72
2021/04/01 11:36:11;;;;;;;7.43;1.73;;;31.10;42.40;;;;;;5050938;28;20029;-72
2021/04/01 11:38:50;;;;;;;3.35;1.88;;;31.30;43.20;;;;;;5052093;28;20029;-70
2021/04/01 11:41:21;;;;;;;5.43;1.90;;;31.70;42.40;;;;;;5067495;28;20025;-71
2021/04/01 11:43:55;;;;;;;6.10;2.10;;;32.00;42.40;;;;;;5064601;28;20028;-71
2021/04/01 11:46:31;;;;;;;3.03;1.80;;;31.20;41.90;;;;;;5057766;28;20114;-71
2021/04/01 11:48:59;;;;;;;6.75;2.00;;;30.70;41.40;;;;;;5065023;28;20044;-73
2021/04/01 11:51:34;;;;;;;2.95;1.70;;;31.20;41.70;;;;;;5055244;28;20037;-72
2021/04/01 11:54:00;;;;;;;6.05;2.10;;;32.00;42.90;;;;;;5050101;28;20036;-70
2021/04/01 11:56:41;;;;;;;5.38;2.40;;;31.80;39.70;;;;;;5051946;28;20096;-70
2021/04/01 11:59:11;;;;;;;2.10;2.00;;;30.00;41.70;;;;;;5050172;28;20029;-70
2021/04/01 12:01:50;;;;;;;7.90;2.17;;;30.30;43.80;;;;;;5051476;28;20020;-70
2021/04/01 12:04:18;;;;;;;7.22;2.50;;;29.20;45.20;;;;;;5048891;28;20029;-70
2021/04/01 12:06:44;;;;;;;6.10;2.10;;;28.30;45.70;;;;;;5050988;28;20116;-71
2021/04/01 12:09:10;;;;;;;6.20;2.05;;;28.50;45.70;;;;;;5045920;28;20052;-71
2021/04/01 12:11:54;;;;;;;4.43;2.25;;;28.20;45.40;;;;;;5049959;28;20063;-72
2021/04/01 12:14:19;;;;;;;6.53;1.90;;;29.40;46.40;;;;;;5050567;28;20025;-71
2021/04/01 12:16:45;;;;;;;3.13;2.03;;;29.90;44.70;;;;;;5065253;28;20048;-70
2021/04/01 12:19:12;;;;;;;6.80;1.92;;;29.50;45.60;;;;;;5029589;28;20026;-70
2021/04/01 12:21:38;;;;;;;9.15;2.90;;;28.40;44.20;;;;;;5030905;28;20435;-71
2021/04/01 12:24:05;;;;;;;4.70;2.58;;;28.90;46.10;;;;;;5031171;28;20453;-71
2021/04/01 12:26:48;;;;;;;8.07;2.40;;;29.50;46.20;;;;;;5049287;28;20028;-70
2021/04/01 12:29:14;;;;;;;4.80;2.40;;;29.40;45.70;;;;;;5069556;28;20028;-71
2021/04/01 12:31:44;;;;;;;16.50;2.75;;;29.50;44.70;;;;;;5069454;28;20054;-71
2021/04/01 12:34:11;;;;;;;8.57;2.10;;;29.40;44.10;;;;;;5070098;28;20024;-70
2021/04/01 12:36:41;;;;;;;4.72;2.35;;;29.60;44.70;;;;;;5071149;28;20024;-71
2021/04/01 12:39:08;;;;;;;2.88;2.47;;;30.00;43.90;;;;;;5071237;28;20048;-70
2021/04/01 12:41:36;;;;;;;5.25;2.25;;;29.90;44.60;;;;;;5070271;28;20021;-71
2021/04/01 12:44:02;;;;;;;7.10;2.42;;;30.50;43.70;;;;;;5068658;28;20038;-70
2021/04/01 12:46:45;;;;;;;10.13;2.25;;;30.10;44.70;;;;;;5070819;28;20099;-70
2021/04/01 12:49:16;;;;;;;7.40;2.15;;;29.50;42.80;;;;;;5062354;28;20111;-70
2021/04/01 12:51:54;;;;;;;5.67;2.00;;;29.00;43.30;;;;;;5050564;28;20013;-69
2021/04/01 12:54:26;;;;;;;5.95;2.38;;;29.40;43.80;;;;;;5033185;28;20438;-70
2021/04/01 12:56:58;;;;;;;6.38;2.20;;;30.00;45.80;;;;;;5051175;28;20021;-69
2021/04/01 12:59:42;;;;;;;5.10;2.28;;;30.50;42.20;;;;;;5050456;28;20028;-70
2021/04/01 13:02:13;;;;;;;8.30;2.38;;;29.80;42.90;;;;;;5049872;28;20017;-70
2021/04/01 13:04:40;;;;;;;6.97;2.20;;;30.00;43.70;;;;;;5059770;28;20114;-70
2021/04/01 13:09:53;;;;;;;6.05;2.00;;;31.10;41.30;;;;;;5070536;28;20032;-70
2021/04/01 13:12:24;;;;;;;2.90;2.10;;;31.20;40.00;;;;;;5070448;28;20031;-70
2021/04/01 13:14:49;;;;;;;6.65;1.65;;;31.50;40.40;;;;;;5069389;28;20031;-69
2021/04/01 13:17:16;;;;;;;4.47;1.80;;;31.40;39.00;;;;;;5068534;28;20033;-71
2021/04/01 13:19:42;;;;;;;4.03;1.90;;;31.10;40.50;;;;;;5069926;28;20024;-71
2021/04/01 13:27:02;;;;;;;2.10;1.50;;;31.10;38.70;;;;;;5050278;28;20383;-70
2021/04/01 13:29:31;;;;;;;5.22;1.80;;;30.30;40.30;;;;;;5050712;28;20105;-72
2021/04/01 13:34:51;;;;;;;5.57;1.55;;;28.50;42.00;;;;;;5050041;28;20509;-70
2021/04/01 13:37:22;;;;;;;2.67;1.63;;;28.70;41.80;;;;;;5049731;28;20127;-70
2021/04/01 13:39:52;;;;;;;3.72;2.17;;;28.30;42.60;;;;;;5061560;28;20025;-71
2021/04/01 13:42:37;;;;;;;3.58;1.80;;;28.20;43.20;;;;;;5064266;28;20029;-70
2021/04/01 13:47:41;;;;;;;3.92;1.83;;;28.70;43.00;;;;;;5057835;28;20017;-70
2021/04/01 13:50:10;;;;;;;4.20;1.75;;;29.00;42.10;;;;;;5049895;28;20109;-69
2021/04/01 13:55:31;;;;;;;4.32;1.35;;;29.30;41.30;;;;;;5032371;28;20124;-70
2021/04/01 13:58:24;;;;;;;8.30;2.17;;;29.30;40.60;;;;;;5047849;28;20112;-68
2021/04/01 14:09:12;;;;;;;3.97;1.83;;;27.30;44.40;;;;;;5029080;28;20042;-68
2021/04/01 14:11:39;;;;;;;4.60;2.35;;;27.70;45.50;;;;;;5028286;28;20021;-69
2021/04/01 14:14:06;;;;;;;5.13;2.08;;;27.80;44.90;;;;;;5027821;28;20052;-69
2021/04/01 14:16:33;;;;;;;4.00;1.90;;;28.30;43.30;;;;;;5028915;28;20025;-68
2021/04/01 14:19:00;;;;;;;7.25;2.53;;;28.10;42.70;;;;;;5028508;28;20041;-69
2021/04/01 14:21:26;;;;;;;10.05;2.65;;;27.50;44.70;;;;;;5028840;28;20064;-70
2021/04/01 14:23:52;;;;;;;12.50;2.65;;;27.50;44.10;;;;;;5037487;28;20024;-69
2021/04/01 14:28:49;;;;;;;7.97;2.25;;;26.80;45.70;;;;;;5048186;28;20116;-69
2021/04/01 14:31:15;;;;;;;6.45;2.58;;;26.40;46.90;;;;;;5048019;28;20033;-70
2021/04/01 14:33:43;;;;;;;8.35;2.45;;;25.50;47.30;;;;;;5046012;28;20383;-69
2021/04/01 14:36:11;;;;;;;4.65;2.50;;;25.10;48.20;;;;;;5048275;28;20029;-72
2021/04/01 14:38:40;;;;;;;8.57;2.72;;;25.20;47.80;;;;;;5044762;28;20861;-72
2021/04/01 14:46:34;;;;;;;8.32;2.85;;;25.10;47.90;;;;;;5052782;28;20099;-72
2021/04/01 14:49:03;;;;;;;8.15;2.50;;;26.20;46.80;;;;;;5053213;28;20051;-72
2021/04/01 14:51:29;;;;;;;12.45;2.50;;;27.20;45.60;;;;;;5053026;28;20017;-73
2021/04/01 14:53:57;;;;;;;7.97;2.72;;;28.40;44.40;;;;;;5052019;28;20502;-74
2021/04/01 14:56:26;;;;;;;6.72;2.38;;;29.00;43.30;;;;;;5052556;28;20432;-70
2021/04/01 14:58:52;;;;;;;12.07;2.30;;;29.40;41.70;;;;;;5052362;28;20104;-72
2021/04/01 15:01:22;;;;;;;4.53;2.30;;;30.00;41.70;;;;;;5052239;28;20025;-72
2021/04/01 15:03:49;;;;;;;6.88;2.50;;;30.80;40.00;;;;;;5055246;28;20035;-72
2021/04/01 15:06:15;;;;;;;6.35;2.30;;;31.60;39.60;;;;;;5059589;28;20242;-70
2021/04/01 15:08:41;;;;;;;10.68;3.20;;;31.80;39.50;;;;;;5052672;28;20052;-71